Time;durP1;ratioP1;P1;durP2;ratioP2;P2;SDS_P1;SDS_P2;PMS_P1;PMS_P2;Temp;Humidity;BMP_temperature;BMP_pressure;BME280_temperature;BME280_humidity;BME280_pressure;Samples;Min_cycle;Max_cycle;Signal;HPM_P1;HPM_P2
2023/11/25 06:05:56;;;;;;;1999.90;999.90;;;;;;;;;;5067541;28;20421;-72
2023/11/25 06:08:22;;;;;;;1999.90;999.90;;;;;;;;;;5067597;28;20025;-67
2023/11/25 06:10:49;;;;;;;1999.90;999.90;;;;;;;;;;5067707;28;20460;-66
2023/11/25 06:13:16;;;;;;;1999.90;999.90;;;;;;;;;;5067676;28;20052;-65
2023/11/25 06:15:42;;;;;;;1999.90;999.90;;;;;;;;;;5067235;28;20024;-64
2023/11/25 06:18:08;;;;;;;1999.90;999.90;;;;;;;;;;5067284;28;20427;-71
2023/11/25 06:20:34;;;;;;;1999.90;999.90;;;;;;;;;;5065964;28;20083;-71
2023/11/25 06:23:03;;;;;;;1999.90;999.90;;;;;;;;;;5067356;28;20151;-70
2023/11/25 06:25:29;;;;;;;1999.90;999.90;;;;;;;;;;5064676;28;20484;-68
2023/11/25 06:27:55;;;;;;;1999.90;999.90;;;;;;;;;;5067275;28;20025;-70
2023/11/25 06:30:22;;;;;;;1999.90;999.90;;;;;;;;;;5066904;28;20029;-68
2023/11/25 06:32:48;;;;;;;1999.90;999.90;;;;;;;;;;5065859;28;20426;-64
2023/11/25 06:35:14;;;;;;;1999.90;999.90;;;;;;;;;;5067813;28;20098;-73
2023/11/25 06:37:41;;;;;;;1999.90;999.90;;;;;;;;;;5068119;28;20033;-71
2023/11/25 06:40:07;;;;;;;1999.90;999.90;;;;;;;;;;5067441;28;20017;-74
2023/11/25 06:42:36;;;;;;;1999.90;999.90;;;;;;;;;;5067370;28;20028;-69
2023/11/25 06:45:03;;;;;;;1999.90;999.90;;;;;;;;;;5067083;28;20033;-71
2023/11/25 06:47:29;;;;;;;1999.90;999.90;;;;;;;;;;5067266;28;20024;-75
2023/11/25 06:49:55;;;;;;;1999.90;999.90;;;;;;;;;;5067381;28;20028;-67
2023/11/25 06:52:21;;;;;;;1999.90;999.90;;;;;;;;;;5067208;28;20025;-65
2023/11/25 06:54:47;;;;;;;1999.90;999.90;;;;;;;;;;5066806;28;20033;-65
2023/11/25 06:57:15;;;;;;;1999.90;999.90;;;;;;;;;;5066023;28;20056;-68
2023/11/25 06:59:45;;;;;;;1999.90;999.90;;;;;;;;;;5066174;28;20028;-67
2023/11/25 07:02:11;;;;;;;1999.90;999.90;;;;;;;;;;5066242;28;20024;-68
2023/11/25 07:04:37;;;;;;;1999.90;999.90;;;;;;;;;;5055811;28;20041;-69
2023/11/25 07:07:03;;;;;;;1999.90;999.90;;;;;;;;;;5046312;28;20036;-67
2023/11/25 07:09:30;;;;;;;1999.90;999.90;;;;;;;;;;5070072;28;20108;-68
2023/11/25 07:11:56;;;;;;;1999.90;999.90;;;;;;;;;;5045981;28;20111;-74
2023/11/25 07:14:22;;;;;;;1999.90;999.90;;;;;;;;;;5046292;28;20033;-72
2023/11/25 07:16:48;;;;;;;1999.90;999.90;;;;;;;;;;5035240;28;20030;-73
2023/11/25 07:19:15;;;;;;;1999.90;999.90;;;;;;;;;;5030123;28;20112;-64
2023/11/25 07:21:41;;;;;;;1999.90;999.90;;;;;;;;;;5032454;28;20034;-74
2023/11/25 07:24:08;;;;;;;1999.90;999.90;;;;;;;;;;5032422;28;20034;-68
2023/11/25 07:26:42;;;;;;;1999.90;999.90;;;;;;;;;;5032496;28;20028;-68
2023/11/25 07:29:11;;;;;;;1999.90;999.90;;;;;;;;;;5031395;28;20033;-72
2023/11/25 07:31:37;;;;;;;1999.90;999.90;;;;;;;;;;5032497;28;20043;-64
2023/11/25 07:34:04;;;;;;;1999.90;999.90;;;;;;;;;;5032544;28;20029;-76
2023/11/25 07:36:32;;;;;;;1999.90;999.90;;;;;;;;;;5053059;28;20449;-74
2023/11/25 07:38:58;;;;;;;1999.90;999.90;;;;;;;;;;5030080;28;20047;-69
2023/11/25 07:41:24;;;;;;;1999.90;999.90;;;;;;;;;;5032438;28;20025;-72
2023/11/25 07:43:51;;;;;;;1999.90;999.90;;;;;;;;;;5055763;28;20501;-69
2023/11/25 07:46:17;;;;;;;1999.90;999.90;;;;;;;;;;5032012;28;20017;-70
2023/11/25 07:48:44;;;;;;;1999.90;999.90;;;;;;;;;;5032189;28;20029;-62
2023/11/25 07:51:10;;;;;;;1999.90;999.90;;;;;;;;;;5032345;28;20477;-65
2023/11/25 07:53:36;;;;;;;1999.90;999.90;;;;;;;;;;5029228;28;20037;-64
2023/11/25 07:56:02;;;;;;;1999.90;999.90;;;;;;;;;;5032324;28;20045;-65
2023/11/25 07:58:29;;;;;;;1999.90;999.90;;;;;;;;;;5053247;28;20118;-65
2023/11/25 08:00:55;;;;;;;1999.90;999.90;;;;;;;;;;5023290;28;20029;-64
2023/11/25 08:03:21;;;;;;;1999.90;999.90;;;;;;;;;;5021938;28;20021;-67
2023/11/25 08:05:47;;;;;;;1999.90;999.90;;;;;;;;;;5021147;28;20196;-66
2023/11/25 08:08:13;;;;;;;1999.90;999.90;;;;;;;;;;5015123;28;20022;-64
2023/11/25 08:10:41;;;;;;;1999.90;999.90;;;;;;;;;;5012399;28;20593;-67
2023/11/25 08:13:07;;;;;;;1999.90;999.90;;;;;;;;;;5012740;28;20061;-64
2023/11/25 08:15:33;;;;;;;1999.90;999.90;;;;;;;;;;5012180;28;20022;-64
2023/11/25 08:17:59;;;;;;;1999.90;999.90;;;;;;;;;;5012384;28;20164;-64
2023/11/25 08:20:25;;;;;;;1999.90;999.90;;;;;;;;;;5012280;28;20018;-66
2023/11/25 08:22:51;;;;;;;1999.90;999.90;;;;;;;;;;5020898;28;20040;-65
2023/11/25 08:25:18;;;;;;;1999.90;999.90;;;;;;;;;;5031897;28;20124;-65
2023/11/25 08:27:44;;;;;;;1999.90;999.90;;;;;;;;;;5031148;28;20068;-66
2023/11/25 08:30:11;;;;;;;1999.90;999.90;;;;;;;;;;5032139;28;20395;-64
2023/11/25 08:32:40;;;;;;;1999.90;999.90;;;;;;;;;;5031053;28;20018;-67
2023/11/25 08:35:08;;;;;;;1999.90;999.90;;;;;;;;;;5025568;28;20065;-65
2023/11/25 08:37:34;;;;;;;1999.90;999.90;;;;;;;;;;5032243;28;20017;-65
2023/11/25 08:40:00;;;;;;;1999.90;999.90;;;;;;;;;;5030911;28;20544;-65
2023/11/25 08:42:28;;;;;;;1999.90;999.90;;;;;;;;;;5031494;28;20029;-66
2023/11/25 08:44:55;;;;;;;1999.90;999.90;;;;;;;;;;5031675;28;20118;-65
2023/11/25 08:47:21;;;;;;;1999.90;999.90;;;;;;;;;;5031868;28;20787;-66
2023/11/25 08:49:48;;;;;;;1999.90;999.90;;;;;;;;;;5055239;28;20132;-66
2023/11/25 08:52:15;;;;;;;1999.90;999.90;;;;;;;;;;5017227;28;20017;-67
2023/11/25 08:54:41;;;;;;;1999.90;999.90;;;;;;;;;;5029698;28;20105;-68
2023/11/25 08:57:10;;;;;;;1999.90;999.90;;;;;;;;;;5026716;28;20436;-67
2023/11/25 08:59:37;;;;;;;1999.90;999.90;;;;;;;;;;5029777;28;20107;-64
2023/11/25 09:02:04;;;;;;;1999.90;999.90;;;;;;;;;;5022553;28;20027;-67
2023/11/25 09:04:35;;;;;;;1999.90;999.90;;;;;;;;;;5022707;28;20041;-67
2023/11/25 09:07:02;;;;;;;1999.90;999.90;;;;;;;;;;5027031;28;20021;-67
2023/11/25 09:09:28;;;;;;;1999.90;999.90;;;;;;;;;;5030821;28;20025;-68
2023/11/25 09:11:54;;;;;;;1999.90;999.90;;;;;;;;;;5030872;28;20037;-68
2023/11/25 09:14:20;;;;;;;1999.90;999.90;;;;;;;;;;5031107;28;20572;-68
2023/11/25 09:16:47;;;;;;;1999.90;999.90;;;;;;;;;;5052600;28;20800;-68
2023/11/25 09:19:13;;;;;;;1999.90;999.90;;;;;;;;;;5030936;28;20025;-67
2023/11/25 09:21:41;;;;;;;1999.90;999.90;;;;;;;;;;5030727;28;20488;-71
2023/11/25 09:24:07;;;;;;;1999.90;999.90;;;;;;;;;;5062143;28;20075;-65
2023/11/25 09:26:33;;;;;;;1999.90;999.90;;;;;;;;;;5030580;28;20083;-65
2023/11/25 09:28:59;;;;;;;1999.90;999.90;;;;;;;;;;5031420;28;20036;-69
2023/11/25 09:31:26;;;;;;;1999.90;999.90;;;;;;;;;;5028959;28;20056;-65
2023/11/25 09:33:52;;;;;;;1999.90;999.90;;;;;;;;;;5030376;28;20041;-64
2023/11/25 09:36:18;;;;;;;1999.90;999.90;;;;;;;;;;5030209;28;20098;-65
2023/11/25 09:38:44;;;;;;;1999.90;999.90;;;;;;;;;;5030131;28;20121;-70
2023/11/25 09:41:11;;;;;;;1999.90;999.90;;;;;;;;;;5023135;28;20060;-70
2023/11/25 09:43:37;;;;;;;1999.90;999.90;;;;;;;;;;5010774;28;20390;-71
2023/11/25 09:46:05;;;;;;;1999.90;999.90;;;;;;;;;;5009658;28;20075;-64
2023/11/25 09:48:33;;;;;;;1999.90;999.90;;;;;;;;;;5011004;28;20037;-65
2023/11/25 09:50:59;;;;;;;1999.90;999.90;;;;;;;;;;5029677;28;20029;-65
2023/11/25 09:53:27;;;;;;;1999.90;999.90;;;;;;;;;;5029935;28;20045;-65
2023/11/25 09:56:04;;;;;;;1999.90;999.90;;;;;;;;;;5053166;28;20024;-72
2023/11/25 09:58:33;;;;;;;1999.90;999.90;;;;;;;;;;5029611;28;20025;-69
2023/11/25 10:00:59;;;;;;;1999.90;999.90;;;;;;;;;;5028706;28;20499;-72
2023/11/25 10:03:29;;;;;;;1999.90;999.90;;;;;;;;;;5030162;28;20037;-67
2023/11/25 10:05:55;;;;;;;1999.90;999.90;;;;;;;;;;5029786;28;20124;-65
2023/11/25 10:08:22;;;;;;;1999.90;999.90;;;;;;;;;;5029912;28;20024;-65
2023/11/25 10:11:08;;;;;;;1999.90;999.90;;;;;;;;;;5030124;28;20409;-65
2023/11/25 10:13:34;;;;;;;1999.90;999.90;;;;;;;;;;5030291;28;20021;-71
2023/11/25 10:16:01;;;;;;;1999.90;999.90;;;;;;;;;;5030012;28;20500;-65
2023/11/25 10:18:28;;;;;;;1999.90;999.90;;;;;;;;;;5024778;28;20034;-66
2023/11/25 10:20:58;;;;;;;1999.90;999.90;;;;;;;;;;5030420;28;20022;-65
2023/11/25 10:23:27;;;;;;;1999.90;999.90;;;;;;;;;;5029873;28;20029;-65
2023/11/25 10:25:53;;;;;;;1999.90;999.90;;;;;;;;;;5029775;28;20478;-70
2023/11/25 10:28:32;;;;;;;1999.90;999.90;;;;;;;;;;5029376;28;20122;-65
2023/11/25 10:30:59;;;;;;;1999.90;999.90;;;;;;;;;;5030022;28;20494;-64
2023/11/25 10:33:27;;;;;;;1999.90;999.90;;;;;;;;;;5030012;28;20412;-63
2023/11/25 10:35:54;;;;;;;1999.90;999.90;;;;;;;;;;5030167;28;20075;-66
2023/11/25 10:38:22;;;;;;;1999.90;999.90;;;;;;;;;;5061738;28;20061;-64
2023/11/25 10:40:49;;;;;;;1999.90;999.90;;;;;;;;;;5030330;28;20022;-70
2023/11/25 10:43:15;;;;;;;1999.90;999.90;;;;;;;;;;5029959;28;20132;-65
2023/11/25 10:45:42;;;;;;;1999.90;999.90;;;;;;;;;;5029919;28;20091;-65
2023/11/25 10:48:10;;;;;;;1999.90;999.90;;;;;;;;;;5030109;28;20045;-64
2023/11/25 10:50:36;;;;;;;1999.90;999.90;;;;;;;;;;5030061;28;20040;-69
2023/11/25 10:53:05;;;;;;;1999.90;999.90;;;;;;;;;;5033677;28;20113;-69
2023/11/25 10:55:32;;;;;;;1999.90;999.90;;;;;;;;;;5033665;28;20025;-64
2023/11/25 10:58:02;;;;;;;1999.90;999.90;;;;;;;;;;5033215;28;20021;-65
2023/11/25 11:00:31;;;;;;;1999.90;999.90;;;;;;;;;;5065289;28;20033;-65
2023/11/25 11:02:59;;;;;;;1999.90;999.90;;;;;;;;;;5033285;28;20017;-65
2023/11/25 11:05:29;;;;;;;1999.90;999.90;;;;;;;;;;5063905;28;20460;-69
2023/11/25 11:07:58;;;;;;;1999.90;999.90;;;;;;;;;;5033178;28;20038;-69
2023/11/25 11:10:32;;;;;;;1999.90;999.90;;;;;;;;;;5033095;28;20428;-66
2023/11/25 11:13:04;;;;;;;1999.90;999.90;;;;;;;;;;5032928;28;20030;-65
2023/11/25 11:15:31;;;;;;;1999.90;999.90;;;;;;;;;;5033367;28;20504;-66
2023/11/25 11:17:57;;;;;;;1999.90;999.90;;;;;;;;;;5032849;28;20067;-65
2023/11/25 11:20:28;;;;;;;1999.90;999.90;;;;;;;;;;5031735;28;20028;-69
2023/11/25 11:22:55;;;;;;;1999.90;999.90;;;;;;;;;;5022580;28;20021;-65
2023/11/25 11:25:29;;;;;;;1999.90;999.90;;;;;;;;;;5021225;28;20042;-71
2023/11/25 11:28:05;;;;;;;1999.90;999.90;;;;;;;;;;5056826;28;20025;-64
2023/11/25 11:30:48;;;;;;;1999.90;999.90;;;;;;;;;;5019583;28;20426;-64
2023/11/25 11:33:14;;;;;;;1999.90;999.90;;;;;;;;;;5013238;28;20466;-71
2023/11/25 11:35:41;;;;;;;1999.90;999.90;;;;;;;;;;5013390;28;20088;-65
2023/11/25 11:38:24;;;;;;;1999.90;999.90;;;;;;;;;;5012809;28;20034;-65
2023/11/25 11:40:50;;;;;;;;;;;;;;;;;;5013596;28;20105;-65
2023/11/25 11:43:19;;;;;;;1999.90;999.90;;;;;;;;;;5026874;28;20011;-69
2023/11/25 11:45:45;;;;;;;1999.90;999.90;;;;;;;;;;5055471;28;20072;-66
2023/11/25 11:48:15;;;;;;;1999.90;999.90;;;;;;;;;;5031988;28;20018;-65
2023/11/25 11:50:42;;;;;;;1999.90;999.90;;;;;;;;;;5031972;28;20025;-71
2023/11/25 11:53:17;;;;;;;1999.90;999.90;;;;;;;;;;5032178;28;20029;-71
2023/11/25 11:55:53;;;;;;;1999.90;999.90;;;;;;;;;;5032134;28;20034;-68
2023/11/25 11:58:26;;;;;;;1999.90;999.90;;;;;;;;;;5032217;28;20113;-66
2023/11/25 12:01:06;;;;;;;1999.90;999.90;;;;;;;;;;5032444;28;20029;-66
2023/11/25 12:03:33;;;;;;;1999.90;999.90;;;;;;;;;;5031721;28;20028;-66
2023/11/25 12:06:00;;;;;;;1999.90;999.90;;;;;;;;;;5031919;28;20041;-64
2023/11/25 12:08:27;;;;;;;1999.90;999.90;;;;;;;;;;5032379;28;20032;-70
2023/11/25 12:10:54;;;;;;;1999.90;999.90;;;;;;;;;;5032358;28;20397;-71
2023/11/25 12:13:36;;;;;;;1999.90;999.90;;;;;;;;;;5032161;28;20108;-71
2023/11/25 12:16:03;;;;;;;1999.90;999.90;;;;;;;;;;5031927;28;20052;-66
2023/11/25 12:18:30;;;;;;;1999.90;999.90;;;;;;;;;;5031810;28;20057;-65
2023/11/25 12:20:57;;;;;;;1999.90;999.90;;;;;;;;;;5031949;28;20104;-66
2023/11/25 12:23:28;;;;;;;1999.90;999.90;;;;;;;;;;5031843;28;20032;-66
2023/11/25 12:25:54;;;;;;;1999.90;999.90;;;;;;;;;;5031742;28;20064;-70
2023/11/25 12:28:21;;;;;;;1999.90;999.90;;;;;;;;;;5031840;28;20386;-71
2023/11/25 12:30:47;;;;;;;1999.90;999.90;;;;;;;;;;5031647;28;20504;-64
2023/11/25 12:33:13;;;;;;;1999.90;999.90;;;;;;;;;;5030679;28;20040;-65
2023/11/25 12:35:40;;;;;;;1999.90;999.90;;;;;;;;;;5030080;28;20552;-70
2023/11/25 12:38:06;;;;;;;1999.90;999.90;;;;;;;;;;5030558;28;20300;-66
2023/11/25 12:40:33;;;;;;;1999.90;999.90;;;;;;;;;;5029950;28;20751;-68
2023/11/25 12:42:59;;;;;;;1999.90;999.90;;;;;;;;;;5030918;28;20030;-70
2023/11/25 12:45:29;;;;;;;1999.90;999.90;;;;;;;;;;5030786;28;20488;-65
2023/11/25 12:47:55;;;;;;;1999.90;999.90;;;;;;;;;;5030604;28;20037;-66
2023/11/25 12:50:25;;;;;;;1999.90;999.90;;;;;;;;;;5051372;28;21332;-66
2023/11/25 12:53:10;;;;;;;1999.90;999.90;;;;;;;;;;5028772;28;20124;-69
2023/11/25 12:55:39;;;;;;;1999.90;999.90;;;;;;;;;;5026151;28;20808;-64
2023/11/25 12:58:06;;;;;;;1999.90;999.90;;;;;;;;;;5030797;28;20025;-71
2023/11/25 13:00:33;;;;;;;1999.90;999.90;;;;;;;;;;5030677;28;20025;-64
2023/11/25 13:02:59;;;;;;;1999.90;999.90;;;;;;;;;;5030464;28;20021;-68
2023/11/25 13:05:25;;;;;;;1999.90;999.90;;;;;;;;;;5029844;28;20081;-67
2023/11/25 13:07:51;;;;;;;1999.90;999.90;;;;;;;;;;5030567;28;20028;-65
2023/11/25 13:10:17;;;;;;;1999.90;999.90;;;;;;;;;;5030823;28;20021;-64
2023/11/25 13:12:43;;;;;;;1999.90;999.90;;;;;;;;;;5062188;28;20037;-69
2023/11/25 13:15:09;;;;;;;1999.90;999.90;;;;;;;;;;5030100;28;20036;-70
2023/11/25 13:17:36;;;;;;;1999.90;999.90;;;;;;;;;;5030534;28;20678;-64
2023/11/25 13:20:03;;;;;;;1999.90;999.90;;;;;;;;;;5030453;28;20032;-65
2023/11/25 13:22:29;;;;;;;1999.90;999.90;;;;;;;;;;5061668;28;20048;-64
2023/11/25 13:24:55;;;;;;;1999.90;999.90;;;;;;;;;;5030176;28;20037;-65
2023/11/25 13:27:22;;;;;;;1999.90;999.90;;;;;;;;;;5030685;28;20033;-67
2023/11/25 13:29:48;;;;;;;1999.90;999.90;;;;;;;;;;5030527;28;20029;-71
2023/11/25 13:32:18;;;;;;;1999.90;999.90;;;;;;;;;;5030126;28;20116;-70
2023/11/25 13:34:44;;;;;;;1999.90;999.90;;;;;;;;;;5030020;28;20087;-66
2023/11/25 13:37:10;;;;;;;1999.90;999.90;;;;;;;;;;5030190;28;20358;-71
2023/11/25 13:39:36;;;;;;;1999.90;999.90;;;;;;;;;;5029472;28;20112;-65
2023/11/25 13:42:04;;;;;;;1999.90;999.90;;;;;;;;;;5030558;28;20025;-71
2023/11/25 13:44:30;;;;;;;1999.90;999.90;;;;;;;;;;5030102;28;20064;-66
2023/11/25 13:46:57;;;;;;;1999.90;999.90;;;;;;;;;;5030379;28;20076;-63
2023/11/25 13:49:28;;;;;;;1999.90;999.90;;;;;;;;;;5029930;28;20033;-61
2023/11/25 13:51:56;;;;;;;1999.90;999.90;;;;;;;;;;5029233;28;20121;-64
2023/11/25 13:54:24;;;;;;;1999.90;999.90;;;;;;;;;;5030235;28;20025;-65
2023/11/25 13:56:51;;;;;;;1999.90;999.90;;;;;;;;;;5030643;28;20025;-69
2023/11/25 13:59:17;;;;;;;1999.90;999.90;;;;;;;;;;5030501;28;20025;-63
2023/11/25 14:01:46;;;;;;;1999.90;999.90;;;;;;;;;;5030228;28;20109;-63
2023/11/25 14:04:12;;;;;;;1999.90;999.90;;;;;;;;;;5029469;28;20052;-64
2023/11/25 14:06:38;;;;;;;1999.90;999.90;;;;;;;;;;5029990;28;20104;-65
2023/11/25 14:09:04;;;;;;;1999.90;999.90;;;;;;;;;;5030203;28;20026;-72
2023/11/25 14:11:31;;;;;;;1999.90;999.90;;;;;;;;;;5029853;28;20048;-62
2023/11/25 14:13:57;;;;;;;1999.90;999.90;;;;;;;;;;5029144;28;20029;-64
2023/11/25 14:16:23;;;;;;;1999.90;999.90;;;;;;;;;;5030454;28;20032;-66
2023/11/25 14:18:51;;;;;;;1999.90;999.90;;;;;;;;;;5029841;28;20025;-65
2023/11/25 14:21:18;;;;;;;1999.90;999.90;;;;;;;;;;5029840;28;20022;-63
2023/11/25 14:23:44;;;;;;;1999.90;999.90;;;;;;;;;;5029474;28;20036;-64
2023/11/25 14:26:10;;;;;;;1999.90;999.90;;;;;;;;;;5030672;28;20064;-70
2023/11/25 14:28:37;;;;;;;1999.90;999.90;;;;;;;;;;5034014;28;20037;-68
2023/11/25 14:31:06;;;;;;;1999.90;999.90;;;;;;;;;;5033976;28;20053;-65
2023/11/25 14:33:33;;;;;;;1999.90;999.90;;;;;;;;;;5033190;28;20018;-65
2023/11/25 14:35:59;;;;;;;1999.90;999.90;;;;;;;;;;5033292;28;20021;-65
2023/11/25 14:38:26;;;;;;;1999.90;999.90;;;;;;;;;;5033564;28;20105;-65
2023/11/25 14:40:52;;;;;;;1999.90;999.90;;;;;;;;;;5033715;28;20025;-65
2023/11/25 14:43:18;;;;;;;1999.90;999.90;;;;;;;;;;5031921;28;20032;-65
2023/11/25 14:45:45;;;;;;;1999.90;999.90;;;;;;;;;;5033131;28;20048;-71
2023/11/25 14:48:12;;;;;;;1999.90;999.90;;;;;;;;;;5033792;28;20072;-65
2023/11/25 14:50:40;;;;;;;1999.90;999.90;;;;;;;;;;5033651;28;20041;-66
2023/11/25 14:53:07;;;;;;;1999.90;999.90;;;;;;;;;;5033504;28;20056;-66
2023/11/25 14:55:34;;;;;;;1999.90;999.90;;;;;;;;;;5033111;28;20036;-68
2023/11/25 14:58:00;;;;;;;1999.90;999.90;;;;;;;;;;5033559;28;20619;-71
2023/11/25 15:00:29;;;;;;;1999.90;999.90;;;;;;;;;;5033290;28;20033;-65
2023/11/25 15:02:57;;;;;;;1999.90;999.90;;;;;;;;;;5033567;28;20152;-67
2023/11/25 15:05:24;;;;;;;1999.90;999.90;;;;;;;;;;5032203;28;20041;-67
2023/11/25 15:07:50;;;;;;;1999.90;999.90;;;;;;;;;;5032627;28;20044;-67
2023/11/25 15:10:16;;;;;;;1999.90;999.90;;;;;;;;;;5032520;28;20064;-66
2023/11/25 15:12:42;;;;;;;1999.90;999.90;;;;;;;;;;5032854;28;20031;-67
2023/11/25 15:15:08;;;;;;;1999.90;999.90;;;;;;;;;;5033258;28;20026;-67
2023/11/25 15:17:35;;;;;;;1999.90;999.90;;;;;;;;;;5032733;28;20029;-68
2023/11/25 15:20:01;;;;;;;1999.90;999.90;;;;;;;;;;5031889;28;20017;-67
2023/11/25 15:22:27;;;;;;;1999.90;999.90;;;;;;;;;;5027379;28;20036;-68
2023/11/25 15:24:54;;;;;;;1999.90;999.90;;;;;;;;;;5026658;28;20052;-68
2023/11/25 15:27:21;;;;;;;1999.90;999.90;;;;;;;;;;5016688;28;20134;-68
2023/11/25 15:29:58;;;;;;;1999.90;999.90;;;;;;;;;;5029848;28;20026;-68
2023/11/25 15:32:25;;;;;;;1999.90;999.90;;;;;;;;;;5032088;28;20014;-67
2023/11/25 15:34:51;;;;;;;1999.90;999.90;;;;;;;;;;5020682;28;20085;-66
2023/11/25 15:37:17;;;;;;;1999.90;999.90;;;;;;;;;;5021803;28;20850;-67
2023/11/25 15:39:43;;;;;;;1999.90;999.90;;;;;;;;;;5023476;28;20580;-67
2023/11/25 15:42:09;;;;;;;1999.90;999.90;;;;;;;;;;5017613;28;20033;-67
2023/11/25 15:44:36;;;;;;;1999.90;999.90;;;;;;;;;;5012530;28;20034;-66
2023/11/25 15:47:02;;;;;;;1999.90;999.90;;;;;;;;;;5012913;28;20022;-67
2023/11/25 15:49:28;;;;;;;1999.90;999.90;;;;;;;;;;5012377;28;20099;-67
2023/11/25 15:51:55;;;;;;;1999.90;999.90;;;;;;;;;;5012460;28;20018;-67
2023/11/25 15:54:21;;;;;;;1999.90;999.90;;;;;;;;;;5012637;28;20110;-65
2023/11/25 15:56:47;;;;;;;1999.90;999.90;;;;;;;;;;5011304;28;20374;-66
2023/11/25 15:59:13;;;;;;;1999.90;999.90;;;;;;;;;;5012685;28;20085;-66
2023/11/25 16:01:39;;;;;;;1999.90;999.90;;;;;;;;;;5025406;28;20034;-66
2023/11/25 16:04:05;;;;;;;1999.90;999.90;;;;;;;;;;5032017;28;20128;-66
2023/11/25 16:06:31;;;;;;;1999.90;999.90;;;;;;;;;;5032181;28;20064;-66
2023/11/25 16:08:57;;;;;;;1999.90;999.90;;;;;;;;;;5032002;28;20029;-67
2023/11/25 16:11:24;;;;;;;1999.90;999.90;;;;;;;;;;5031997;28;20037;-67
2023/11/25 16:13:50;;;;;;;1999.90;999.90;;;;;;;;;;5031986;28;20072;-67
2023/11/25 16:16:16;;;;;;;1999.90;999.90;;;;;;;;;;5031468;28;20030;-68
2023/11/25 16:18:42;;;;;;;1999.90;999.90;;;;;;;;;;5032180;28;20018;-69
2023/11/25 16:21:08;;;;;;;1999.90;999.90;;;;;;;;;;5032127;28;20036;-68
2023/11/25 16:23:35;;;;;;;1999.90;999.90;;;;;;;;;;5032102;28;20053;-67
2023/11/25 16:26:01;;;;;;;1999.90;999.90;;;;;;;;;;5031898;28;20033;-68
2023/11/25 16:28:29;;;;;;;1999.90;999.90;;;;;;;;;;5031735;28;20484;-65
2023/11/25 16:30:55;;;;;;;1999.90;999.90;;;;;;;;;;5032058;28;20389;-67
2023/11/25 16:33:21;;;;;;;1999.90;999.90;;;;;;;;;;5031858;28;20029;-67
2023/11/25 16:35:47;;;;;;;1999.90;999.90;;;;;;;;;;5031484;28;20065;-66
2023/11/25 16:38:15;;;;;;;1999.90;999.90;;;;;;;;;;5031915;28;20037;-67
2023/11/25 16:40:41;;;;;;;1999.90;999.90;;;;;;;;;;5031191;28;20017;-66
2023/11/25 16:43:07;;;;;;;1999.90;999.90;;;;;;;;;;5030565;28;20037;-68
2023/11/25 16:45:33;;;;;;;1999.90;999.90;;;;;;;;;;5031269;28;20048;-69
2023/11/25 16:48:00;;;;;;;1999.90;999.90;;;;;;;;;;5030358;28;20100;-70
2023/11/25 16:50:26;;;;;;;1999.90;999.90;;;;;;;;;;5030940;28;20448;-71
2023/11/25 16:52:52;;;;;;;1999.90;999.90;;;;;;;;;;5031541;28;20087;-65
2023/11/25 16:55:18;;;;;;;1999.90;999.90;;;;;;;;;;5031067;28;20063;-69
2023/11/25 16:57:46;;;;;;;1999.90;999.90;;;;;;;;;;5031391;28;20109;-66
2023/11/25 17:00:16;;;;;;;1999.90;999.90;;;;;;;;;;5031163;28;20072;-67
2023/11/25 17:02:42;;;;;;;1999.90;999.90;;;;;;;;;;5030892;28;20014;-65
2023/11/25 17:05:08;;;;;;;1999.90;999.90;;;;;;;;;;5030465;28;20438;-69
2023/11/25 17:07:35;;;;;;;1999.90;999.90;;;;;;;;;;5030192;28;20025;-68
2023/11/25 17:10:04;;;;;;;1999.90;999.90;;;;;;;;;;5013396;28;20489;-65
2023/11/25 17:12:30;;;;;;;1999.90;999.90;;;;;;;;;;5011258;28;20061;-64
2023/11/25 17:14:56;;;;;;;1999.90;999.90;;;;;;;;;;5013563;28;20037;-66
2023/11/25 17:17:22;;;;;;;1999.90;999.90;;;;;;;;;;5022745;28;20037;-69
2023/11/25 17:19:48;;;;;;;1999.90;999.90;;;;;;;;;;5020661;28;20029;-66
2023/11/25 17:22:14;;;;;;;1999.90;999.90;;;;;;;;;;5025617;28;20096;-66
2023/11/25 17:24:41;;;;;;;1999.90;999.90;;;;;;;;;;5018373;28;20063;-67
2023/11/25 17:27:08;;;;;;;1999.90;999.90;;;;;;;;;;5022298;28;20029;-66
2023/11/25 17:29:34;;;;;;;1999.90;999.90;;;;;;;;;;5022342;28;20021;-68
2023/11/25 17:32:03;;;;;;;1999.90;999.90;;;;;;;;;;5022709;28;20029;-67
2023/11/25 17:34:29;;;;;;;1999.90;999.90;;;;;;;;;;5018793;28;20057;-69
2023/11/25 17:36:56;;;;;;;1999.90;999.90;;;;;;;;;;5017065;28;20136;-68
2023/11/25 17:39:22;;;;;;;1999.90;999.90;;;;;;;;;;5017126;28;20088;-67
2023/11/25 17:41:48;;;;;;;1999.90;999.90;;;;;;;;;;5017767;28;20040;-67
2023/11/25 17:44:14;;;;;;;1999.90;999.90;;;;;;;;;;5029252;28;20396;-67
2023/11/25 17:46:41;;;;;;;1999.90;999.90;;;;;;;;;;5015908;28;20136;-67
2023/11/25 17:49:08;;;;;;;1999.90;999.90;;;;;;;;;;5022608;28;20030;-67
2023/11/25 17:51:35;;;;;;;1999.90;999.90;;;;;;;;;;5022584;28;20487;-66
2023/11/25 17:54:01;;;;;;;1999.90;999.90;;;;;;;;;;5022299;28;20089;-67
2023/11/25 17:56:27;;;;;;;1999.90;999.90;;;;;;;;;;5022231;28;20107;-67
2023/11/25 17:58:53;;;;;;;1999.90;999.90;;;;;;;;;;5023653;28;20028;-69
2023/11/25 18:01:19;;;;;;;1999.90;999.90;;;;;;;;;;5029035;28;20079;-68
2023/11/25 18:03:45;;;;;;;1999.90;999.90;;;;;;;;;;5023439;28;20119;-68
2023/11/25 18:06:11;;;;;;;1999.90;999.90;;;;;;;;;;5026017;28;20461;-66
2023/11/25 18:08:37;;;;;;;1999.90;999.90;;;;;;;;;;5029202;28;20048;-67
2023/11/25 18:11:04;;;;;;;1999.90;999.90;;;;;;;;;;5024637;28;20761;-66
2023/11/25 18:13:30;;;;;;;1999.90;999.90;;;;;;;;;;5019813;28;20385;-69
2023/11/25 18:15:57;;;;;;;1999.90;999.90;;;;;;;;;;5020256;28;20037;-68
2023/11/25 18:18:23;;;;;;;1999.90;999.90;;;;;;;;;;5018408;28;20021;-68
2023/11/25 18:20:49;;;;;;;1999.90;999.90;;;;;;;;;;5021153;28;20774;-67
2023/11/25 18:23:15;;;;;;;1999.90;999.90;;;;;;;;;;5061756;28;20358;-67
2023/11/25 18:25:42;;;;;;;1999.90;999.90;;;;;;;;;;5029535;28;20041;-68
2023/11/25 18:28:08;;;;;;;1999.90;999.90;;;;;;;;;;5030056;28;20071;-66
2023/11/25 18:30:34;;;;;;;1999.90;999.90;;;;;;;;;;5029924;28;20082;-66
2023/11/25 18:33:00;;;;;;;1999.90;999.90;;;;;;;;;;5029696;28;20064;-67
2023/11/25 18:35:26;;;;;;;1999.90;999.90;;;;;;;;;;5029047;28;20433;-65
2023/11/25 18:37:52;;;;;;;1999.90;999.90;;;;;;;;;;5027864;28;20057;-68
2023/11/25 18:40:18;;;;;;;1999.90;999.90;;;;;;;;;;5029546;28;20018;-69
2023/11/25 18:42:44;;;;;;;1999.90;999.90;;;;;;;;;;5029728;28;20026;-68
2023/11/25 18:45:10;;;;;;;1999.90;999.90;;;;;;;;;;5029561;28;20038;-68
2023/11/25 18:47:36;;;;;;;1999.90;999.90;;;;;;;;;;5029039;28;20096;-68
2023/11/25 18:50:03;;;;;;;1999.90;999.90;;;;;;;;;;5029359;28;20112;-67
2023/11/25 18:52:29;;;;;;;1999.90;999.90;;;;;;;;;;5028935;28;20028;-67
2023/11/25 18:54:55;;;;;;;1999.90;999.90;;;;;;;;;;5028981;28;20381;-68
2023/11/25 18:57:21;;;;;;;1999.90;999.90;;;;;;;;;;5029554;28;20035;-66
2023/11/25 18:59:47;;;;;;;1999.90;999.90;;;;;;;;;;5029625;28;20101;-70
2023/11/25 19:02:17;;;;;;;1999.90;999.90;;;;;;;;;;5028944;28;20024;-69
2023/11/25 19:04:43;;;;;;;1999.90;999.90;;;;;;;;;;5028745;28;20568;-66
2023/11/25 19:07:10;;;;;;;1999.90;999.90;;;;;;;;;;5029010;28;20037;-68
2023/11/25 19:09:36;;;;;;;1999.90;999.90;;;;;;;;;;5029061;28;20488;-67
2023/11/25 19:12:03;;;;;;;1999.90;999.90;;;;;;;;;;5030266;28;20048;-67
2023/11/25 19:14:32;;;;;;;1999.90;999.90;;;;;;;;;;5025555;28;20034;-69
2023/11/25 19:16:58;;;;;;;1999.90;999.90;;;;;;;;;;5029124;28;20029;-68
2023/11/25 19:19:24;;;;;;;1999.90;999.90;;;;;;;;;;5032311;28;20049;-70
2023/11/25 19:21:50;;;;;;;1999.90;999.90;;;;;;;;;;5031568;28;20033;-70
2023/11/25 19:24:16;;;;;;;1999.90;999.90;;;;;;;;;;5026903;28;20144;-68
2023/11/25 19:26:43;;;;;;;1999.90;999.90;;;;;;;;;;5028580;28;20541;-68
2023/11/25 19:29:09;;;;;;;1999.90;999.90;;;;;;;;;;5029441;28;20408;-70
2023/11/25 19:31:36;;;;;;;1999.90;999.90;;;;;;;;;;5020664;28;20084;-70
2023/11/25 19:34:02;;;;;;;1999.90;999.90;;;;;;;;;;5025594;28;20026;-70
2023/11/25 19:36:28;;;;;;;1999.90;999.90;;;;;;;;;;5025126;28;20021;-68
2023/11/25 19:38:54;;;;;;;1999.90;999.90;;;;;;;;;;5025256;28;20025;-67
2023/11/25 19:41:20;;;;;;;1999.90;999.90;;;;;;;;;;5024418;28;20037;-68
2023/11/25 19:43:46;;;;;;;1999.90;999.90;;;;;;;;;;5024056;28;20057;-66
2023/11/25 19:46:13;;;;;;;1999.90;999.90;;;;;;;;;;5025746;28;20483;-69